EKSN/CNL METAR and TAF weather

Enter ICAO airport designator
Station Type Date Time Source
EKSN METAR 2021/09/23 12:56 UTC NOAA

EKSN 231256Z 28024G41KT 9999 SCT021 BKN046 13/10 Q0995


Station Type Date Time Source
EKSN Decoded METAR 2021/09/23 12:56 UTC NOAA

Sindal Flyveplads, Denmark (EKSN) 57-30N 010-13E 28M
Sep 23, 2021 - 08:56 AM EDT / 2021.09.23 1256 UTC
Wind: from the W (280 degrees) at 28 MPH (24 KT) gusting to 47 MPH (41 KT):0
Visibility: greater than 7 mile(s):0
Sky conditions: mostly cloudy
Temperature: 55 F (13 C)
Dew Point: 50 F (10 C)
Relative Humidity: 81%
Pressure (altimeter): 29.38 in. Hg (0995 hPa)
ob: EKSN 231256Z 28024G41KT 9999 SCT021 BKN046 13/10 Q0995
cycle: 13

Station Type Date Time Source
EKSN TAF UTC NOAA

Error!

Example: see airport list